WARRWIOO

Guest
Details From WARR - Surabaya Juanda
To WIOO - Pontianak Supadio
Flight Number -
Tags generated
Created
Modified
Stats Distance 548 nm / 1,015 km
Max Altitude 34,000 ft / 10,363 m
Waypoints 5
Social Downloads 1
Likes 0
Share VATSIM

Download

Looking for another format? Having issues loading an existing format? Contact us
Advertisement - Login to hide

Notes

Basic altitude profile: - Ascent Rate: 2500ft/min - Ascent Speed: 250kts - Cruise Altitude: 35000ft - Cruise Speed: 420kts - Descent Rate: 1500ft/min - Descent Speed: 250kts Options: - Use NATs: yes - Use PACOTS: yes - Use low airways: yes - Use high airways: yes

Route

WARR KOLTA G464 OSUKA WIOO

ID Type Via Altitude Latitude Longitude Leg Dist Tot Dist Heading (true) Name
O WARR APT - 0 ft / 0 m -7.37983˚ 112.78686˚ - 0 nm - Surabaya Juanda
KOLTA FIX - 29,600 ft / 9,022 m -6.46473˚ 113.82785˚ 82 nm 82 nm 49° / 48° -
PKN VOR G464 (AWY-HI) 34,000 ft / 10,363 m -2.72648˚ 111.69597˚ 258 nm 341 nm 330° / 330° PANGKALAN BUN VOR-DME
OSUKA FIX G464 (AWY-HI) 24,500 ft / 7,468 m -1.29167˚ 110.41167˚ 115 nm 456 nm 318° / 318° -
O WIOO APT - 0 ft / 0 m -0.15071˚ 109.40389˚ 91 nm 548 nm 319° / 319° Pontianak Supadio

Altitude Profile

Advertisement - Login to hide

Weather


0- 5 10 15 20 25 30 35+ Temperature / ° C

Clouds and Precipitation
Forecast for 2017-12-19 00:00 UTC. Updated 2 hours ago

Ground ~20,000 ft ~40,000 ft Winds

WARR

Details ICAO WARR (SUB)
Name Surabaya Juanda
Region Indonesia
Timezone Asia/Jakarta (UTC+7.0)
Stats Elevation 9 ft / 3 m (AMSL)
Location -7.379832° 112.786858°
Runways 1
Magnetic Variation 0.952° E

METAR

WARR 182200Z 29008KT 7000 SCT020 25/24 Q1009 NOSIG

Decode

TAF

Not found

Departure Runways

ID Width Length Bearing (true) Bearing (mag) Surface Threshold Offset Overrun Length
10 148 ft / 45 m 9,836 ft / 2,998 m 99.32° 98.37° Asphalt 0 ft / 0 m 328 ft / 100 m
28 148 ft / 45 m 9,836 ft / 2,998 m 279.32° 278.37° Asphalt 0 ft / 0 m 328 ft / 100 m

WIOO

Details ICAO WIOO (PNK)
Name Pontianak Supadio
Region Indonesia
Timezone Asia/Pontianak (UTC+7.0)
Stats Elevation 10 ft / 3 m (AMSL)
Location -0.150708° 109.403890°
Runways 1
Magnetic Variation 0.498° E

METAR

WIOO 182230Z 00000KT 8000 FEW012 24/22 Q1010 NOSIG

Decode

TAF

Not found

Destination Runways

ID Width Length Bearing (true) Bearing (mag) Surface Threshold Offset Overrun Length
15 98 ft / 30 m 7,400 ft / 2,256 m 157.81° 157.31° Asphalt 0 ft / 0 m 213 ft / 65 m
33 98 ft / 30 m 7,400 ft / 2,256 m 337.81° 337.31° Asphalt 0 ft / 0 m 197 ft / 60 m

Approach Navaids

Runway Type Ident Frequency Range Bearing (true) Bearing (mag) Slope Elevation
15 Localiser IPNK 111.30 MHz 18 nm / 33 km 157.35° 156.85° - 10 ft / 3 m (AMSL)
15 Glidescope IPNK 111.30 MHz 10 nm / 19 km 157.81° 157.32° 3.00° 10 ft / 3 m (AMSL)